createdAt,value
2019-02-25T00:00:19.275Z,1028.00
2019-02-25T00:01:19.697Z,1028.00
2019-02-25T00:02:19.601Z,1028.00
2019-02-25T00:03:19.321Z,1027.99
2019-02-25T00:04:20.225Z,1028.00
2019-02-25T00:05:20.544Z,1028.02
2019-02-25T00:06:20.852Z,1028.02
2019-02-25T00:07:21.168Z,1027.93
2019-02-25T00:08:21.691Z,1027.93
2019-02-25T00:09:21.598Z,1027.94
2019-02-25T00:10:21.804Z,1027.96
2019-02-25T00:11:22.007Z,1027.95
2019-02-25T00:12:22.427Z,1027.97
2019-02-25T00:13:22.844Z,1028.10
2019-02-25T00:14:23.481Z,1027.94
2019-02-25T00:15:23.267Z,1027.97
2019-02-25T00:16:23.298Z,1027.95
2019-02-25T00:17:23.583Z,1027.89
2019-02-25T00:18:23.664Z,1027.94
2019-02-25T00:19:23.918Z,1027.91
2019-02-25T00:20:24.035Z,1028.01
2019-02-25T00:21:24.408Z,1028.04
2019-02-25T00:22:24.539Z,1027.90
2019-02-25T00:23:24.751Z,1027.95
2019-02-25T00:24:24.564Z,1027.89
2019-02-25T00:25:24.626Z,1027.91
2019-02-25T00:26:25.261Z,1027.92
2019-02-25T00:27:24.981Z,1027.91
2019-02-25T00:28:24.852Z,1027.89
2019-02-25T00:29:25.189Z,1027.83
2019-02-25T00:30:25.496Z,1027.83
2019-02-25T00:31:25.879Z,1027.89
2019-02-25T00:32:26.230Z,1027.84
2019-02-25T00:33:27.481Z,1027.87
2019-02-25T00:34:27.914Z,1027.87
2019-02-25T00:35:28.313Z,1027.89
2019-02-25T00:36:28.826Z,1027.92
2019-02-25T00:37:28.733Z,1028.00
2019-02-25T00:38:29.044Z,1027.88
2019-02-25T00:39:29.269Z,1027.99
2019-02-25T00:40:29.570Z,1027.90
2019-02-25T00:41:29.784Z,1027.97
2019-02-25T00:42:30.302Z,1027.98
2019-02-25T00:43:30.103Z,1027.95
2019-02-25T00:44:30.320Z,1027.99
2019-02-25T00:45:30.832Z,1027.94
2019-02-25T00:46:30.635Z,1027.93
2019-02-25T00:47:31.051Z,1027.91
2019-02-25T00:48:31.264Z,1027.85
2019-02-25T00:49:31.792Z,1027.94
2019-02-25T00:50:31.655Z,1027.95
2019-02-25T00:51:32.101Z,1028.00
2019-02-25T00:52:32.229Z,1028.04
2019-02-25T00:53:32.522Z,1027.98
2019-02-25T00:54:33.153Z,1028.00
2019-02-25T00:55:33.050Z,1028.16
2019-02-25T00:56:33.364Z,1028.08
2019-02-25T00:57:33.677Z,1028.08
2019-02-25T00:58:33.993Z,1028.10
2019-02-25T00:59:34.321Z,1028.10
2019-02-25T01:00:34.723Z,1028.10
2019-02-25T01:01:35.128Z,1028.07
2019-02-25T01:02:35.651Z,1028.01
2019-02-25T01:03:35.452Z,1028.11
2019-02-25T01:04:35.672Z,1028.12
2019-02-25T01:05:36.202Z,1028.02
2019-02-25T01:07:36.197Z,1028.20
2019-02-25T01:08:36.720Z,1028.01
2019-02-25T01:09:37.133Z,1027.98
2019-02-25T01:10:37.253Z,1028.00
2019-02-25T01:11:37.763Z,1028.01
2019-02-25T01:12:37.561Z,1028.01
2019-02-25T01:13:37.978Z,1028.03
2019-02-25T01:14:38.501Z,1028.06
2019-02-25T01:15:38.726Z,1028.01
2019-02-25T01:16:38.718Z,1028.16
2019-02-25T01:17:38.919Z,1028.08
2019-02-25T01:18:38.627Z,1028.16
2019-02-25T01:19:39.250Z,1028.14
2019-02-25T01:20:38.975Z,1028.05
2019-02-25T01:21:39.366Z,1028.02
2019-02-25T01:22:39.635Z,1028.10
2019-02-25T01:23:39.875Z,1028.13
2019-02-25T01:24:39.794Z,1028.06
2019-02-25T01:25:41.104Z,1028.15
2019-02-25T01:26:41.037Z,1028.03
2019-02-25T01:27:41.448Z,1028.03
2019-02-25T01:28:41.924Z,1028.02
2019-02-25T01:29:42.900Z,1028.04
2019-02-25T01:30:43.313Z,1028.04
2019-02-25T01:31:43.524Z,1028.02
2019-02-25T01:32:44.043Z,1028.01
2019-02-25T01:33:43.642Z,1027.92
2019-02-25T01:34:43.750Z,1027.91
2019-02-25T01:35:44.184Z,1027.99
2019-02-25T01:36:44.479Z,1027.92
2019-02-25T01:37:44.894Z,1027.96
2019-02-25T01:38:45.412Z,1028.03
2019-02-25T01:39:45.188Z,1028.03
2019-02-25T01:40:45.749Z,1028.04
2019-02-25T01:41:45.638Z,1028.01
2019-02-25T01:42:46.155Z,1028.02
2019-02-25T01:43:45.856Z,1028.09
2019-02-25T01:44:46.474Z,1028.07
2019-02-25T01:45:46.387Z,1028.10
2019-02-25T01:46:47.000Z,1028.05
2019-02-25T01:47:47.009Z,1028.01
2019-02-25T01:48:47.527Z,1028.06
2019-02-25T01:49:47.534Z,1028.00
2019-02-25T01:50:47.658Z,1028.05
2019-02-25T01:51:47.551Z,1028.05
2019-02-25T01:52:48.064Z,1028.01
2019-02-25T01:53:48.076Z,1028.10
2019-02-25T01:54:48.178Z,1028.02
2019-02-25T01:55:48.190Z,1028.04
2019-02-25T01:56:48.500Z,1028.03
2019-02-25T01:57:49.022Z,1028.04
2019-02-25T01:58:48.819Z,1028.03
2019-02-25T01:59:49.337Z,1028.04
2019-02-25T02:00:49.249Z,1028.01
2019-02-25T02:01:49.661Z,1027.99
2019-02-25T02:02:50.177Z,1027.96
2019-02-25T02:03:49.776Z,1027.94
2019-02-25T02:04:50.192Z,1027.93
2019-02-25T02:05:50.307Z,1027.92
2019-02-25T02:06:50.722Z,1027.89
2019-02-25T02:07:51.234Z,1027.93
2019-02-25T02:08:51.239Z,1027.93
2019-02-25T02:09:51.144Z,1027.93
2019-02-25T02:10:51.467Z,1027.92
2019-02-25T02:11:51.874Z,1027.98
2019-02-25T02:12:52.194Z,1027.89
2019-02-25T02:13:52.401Z,1027.94
2019-02-25T02:14:52.916Z,1027.87
2019-02-25T02:15:52.824Z,1027.93
2019-02-25T02:16:53.254Z,1027.91
2019-02-25T02:17:53.487Z,1027.93
2019-02-25T02:18:53.581Z,1027.96
2019-02-25T02:19:53.976Z,1027.87
2019-02-25T02:20:54.245Z,1027.83
2019-02-25T02:21:54.210Z,1027.88
2019-02-25T02:22:54.260Z,1027.90
2019-02-25T02:23:54.592Z,1027.89
2019-02-25T02:24:54.929Z,1027.94
2019-02-25T02:25:54.869Z,1027.94
2019-02-25T02:26:55.216Z,1028.01
2019-02-25T02:27:56.060Z,1028.02
2019-02-25T02:28:55.917Z,1028.05
2019-02-25T02:29:57.418Z,1028.05
2019-02-25T02:30:57.323Z,1028.10
2019-02-25T02:31:57.338Z,1028.12
2019-02-25T02:32:57.544Z,1028.07
2019-02-25T02:33:57.958Z,1028.10
2019-02-25T02:34:58.150Z,1028.04
2019-02-25T02:35:58.484Z,1028.00
2019-02-25T02:36:59.016Z,1028.06
2019-02-25T02:37:58.809Z,1028.07
2019-02-25T02:38:59.323Z,1028.07
2019-02-25T02:39:59.130Z,1028.01
2019-02-25T02:40:59.644Z,1028.01
2019-02-25T02:41:59.560Z,1028.03
2019-02-25T02:42:59.816Z,1028.02
2019-02-25T02:44:00.382Z,1028.05
2019-02-25T02:45:00.329Z,1028.08
2019-02-25T02:46:00.394Z,1028.08
2019-02-25T02:47:00.816Z,1028.06
2019-02-25T02:49:01.231Z,1028.07
2019-02-25T02:50:01.445Z,1028.03
2019-02-25T02:51:02.165Z,1028.09
2019-02-25T02:52:02.794Z,1028.15
2019-02-25T02:53:02.892Z,1028.04
2019-02-25T02:54:02.775Z,1028.06
2019-02-25T02:55:03.319Z,1028.01
2019-02-25T02:56:03.528Z,1027.94
2019-02-25T02:57:03.637Z,1028.03
2019-02-25T02:58:03.440Z,1027.98
2019-02-25T02:59:03.754Z,1028.06
2019-02-25T03:00:04.168Z,1027.96
2019-02-25T03:01:05.282Z,1027.96
2019-02-25T03:02:04.486Z,1027.93
2019-02-25T03:03:03.852Z,1027.97
2019-02-25T03:04:04.603Z,1027.93
2019-02-25T03:05:04.816Z,1028.01
2019-02-25T03:06:04.734Z,1028.04
2019-02-25T03:07:05.648Z,1028.07
2019-02-25T03:08:05.510Z,1028.02
2019-02-25T03:09:05.807Z,1028.08
2019-02-25T03:10:06.270Z,1028.01
2019-02-25T03:11:06.253Z,1028.00
2019-02-25T03:12:06.555Z,1028.10
2019-02-25T03:13:07.228Z,1028.03
2019-02-25T03:14:07.215Z,1028.04
2019-02-25T03:15:07.850Z,1027.96
2019-02-25T03:16:07.904Z,1028.02
2019-02-25T03:17:08.265Z,1028.01
2019-02-25T03:18:08.649Z,1027.98
2019-02-25T03:19:08.951Z,1027.96
2019-02-25T03:20:09.278Z,1027.92
2019-02-25T03:21:09.830Z,1027.92
2019-02-25T03:22:10.559Z,1027.91
2019-02-25T03:23:10.885Z,1027.87
2019-02-25T03:24:10.720Z,1027.87
2019-02-25T03:25:11.180Z,1027.83
2019-02-25T03:26:11.143Z,1027.86
2019-02-25T03:27:11.902Z,1027.70
2019-02-25T03:28:12.250Z,1027.70
2019-02-25T03:29:12.114Z,1027.75
2019-02-25T03:30:12.696Z,1027.77
2019-02-25T03:31:12.752Z,1027.81
2019-02-25T03:32:12.967Z,1027.80
2019-02-25T03:33:13.279Z,1027.81
2019-02-25T03:34:13.508Z,1027.77
2019-02-25T03:35:14.326Z,1027.83
2019-02-25T03:36:14.189Z,1027.87
2019-02-25T03:37:14.650Z,1027.89
2019-02-25T03:38:15.283Z,1027.86
2019-02-25T03:39:15.252Z,1027.84
2019-02-25T03:40:16.208Z,1027.79
2019-02-25T03:41:15.998Z,1027.90
2019-02-25T03:42:15.763Z,1027.86
2019-02-25T03:43:16.083Z,1027.89
2019-02-25T03:44:16.348Z,1027.88
2019-02-25T03:45:16.831Z,1027.88
2019-02-25T03:46:17.577Z,1027.88
2019-02-25T03:47:17.686Z,1027.91
2019-02-25T03:48:17.786Z,1027.84
2019-02-25T03:49:18.258Z,1027.87
2019-02-25T03:50:18.195Z,1027.89
2019-02-25T03:51:18.449Z,1027.95
2019-02-25T03:52:18.798Z,1027.92
2019-02-25T03:53:19.118Z,1027.92
2019-02-25T03:54:19.620Z,1027.87
2019-02-25T03:55:19.935Z,1027.89
2019-02-25T03:56:20.512Z,1027.85
2019-02-25T03:57:20.354Z,1027.85
2019-02-25T03:58:21.338Z,1027.92
2019-02-25T03:59:21.106Z,1027.78
2019-02-25T04:00:22.073Z,1027.87
2019-02-25T04:01:21.937Z,1027.84
2019-02-25T04:02:22.243Z,1027.89
2019-02-25T04:03:23.420Z,1027.80
2019-02-25T04:04:22.767Z,1027.80
2019-02-25T04:05:23.089Z,1027.73
2019-02-25T04:06:23.544Z,1027.74
2019-02-25T04:07:23.915Z,1027.81
2019-02-25T04:08:24.229Z,1027.77
2019-02-25T04:09:24.688Z,1027.84
2019-02-25T04:10:25.618Z,1027.76
2019-02-25T04:11:25.491Z,1027.83
2019-02-25T04:12:28.190Z,1027.87
2019-02-25T04:13:26.174Z,1027.87
2019-02-25T04:14:26.664Z,1027.77
2019-02-25T04:15:27.394Z,1027.82
2019-02-25T04:16:27.262Z,1027.83
2019-02-25T04:17:27.563Z,1027.80
2019-02-25T04:18:27.807Z,1027.81
2019-02-25T04:19:28.200Z,1027.83
2019-02-25T04:20:28.676Z,1027.83
2019-02-25T04:21:29.166Z,1027.82
2019-02-25T04:22:29.645Z,1027.86
2019-02-25T04:23:29.446Z,1027.86
2019-02-25T04:24:29.766Z,1027.88
2019-02-25T04:25:30.054Z,1027.87
2019-02-25T04:26:30.514Z,1027.86
2019-02-25T04:27:30.949Z,1027.87
2019-02-25T04:31:38.115Z,1027.87
2019-02-25T04:32:59.531Z,1027.91
2019-02-25T04:33:38.246Z,1027.90
2019-02-25T04:34:38.591Z,1027.90
2019-02-25T04:35:38.441Z,1027.90
2019-02-25T04:36:39.517Z,1027.95
2019-02-25T04:37:38.861Z,1027.89
2019-02-25T04:38:39.187Z,1027.91
2019-02-25T04:39:39.673Z,1027.89
2019-02-25T04:40:39.883Z,1027.94
2019-02-25T04:41:39.766Z,1027.89
2019-02-25T04:42:40.137Z,1027.92
2019-02-25T04:43:41.107Z,1027.87
2019-02-25T04:44:40.974Z,1027.97
2019-02-25T04:45:41.452Z,1028.00
2019-02-25T04:46:42.555Z,1027.94
2019-02-25T04:47:42.261Z,1027.99
2019-02-25T04:48:42.133Z,1027.94
2019-02-25T04:49:42.581Z,1027.96
2019-02-25T04:50:42.887Z,1027.96
2019-02-25T04:51:43.048Z,1028.02
2019-02-25T04:52:43.360Z,1028.00
2019-02-25T04:53:44.135Z,1027.94
2019-02-25T04:54:44.100Z,1027.99
2019-02-25T04:55:44.459Z,1028.03
2019-02-25T04:56:44.325Z,1027.91
2019-02-25T04:57:45.353Z,1027.92
2019-02-25T04:58:45.141Z,1027.98
2019-02-25T04:59:45.489Z,1027.89
2019-02-25T05:00:46.329Z,1027.95
2019-02-25T05:01:46.197Z,1027.94
2019-02-25T05:02:46.710Z,1027.87
2019-02-25T05:03:46.526Z,1027.95
2019-02-25T05:04:46.960Z,1027.93
2019-02-25T05:05:48.112Z,1027.93
2019-02-25T05:06:47.422Z,1028.00
2019-02-25T05:07:47.913Z,1027.94
2019-02-25T05:08:48.251Z,1027.94
2019-02-25T05:09:48.700Z,1027.94
2019-02-25T05:10:49.015Z,1027.91
2019-02-25T05:11:50.208Z,1027.89
2019-02-25T05:12:49.519Z,1027.90
2019-02-25T05:13:49.838Z,1027.86
2019-02-25T05:14:50.178Z,1027.85
2019-02-25T05:15:50.440Z,1027.85
2019-02-25T05:16:50.946Z,1027.86
2019-02-25T05:17:50.937Z,1027.85
2019-02-25T05:18:51.327Z,1027.89
2019-02-25T05:19:51.770Z,1027.89
2019-02-25T05:20:52.185Z,1027.92
2019-02-25T05:21:52.759Z,1027.92
2019-02-25T05:22:52.575Z,1027.87
2019-02-25T05:23:53.346Z,1027.89
2019-02-25T05:24:53.762Z,1027.90
2019-02-25T05:25:55.754Z,1027.99
2019-02-25T05:26:54.315Z,1027.95
2019-02-25T05:27:53.984Z,1027.98
2019-02-25T05:28:53.851Z,1028.00
2019-02-25T05:29:54.174Z,1027.93
2019-02-25T05:30:54.580Z,1027.95
2019-02-25T05:31:54.885Z,1027.94
2019-02-25T05:32:55.305Z,1027.88
2019-02-25T05:33:55.788Z,1027.97
2019-02-25T05:34:55.914Z,1027.87
2019-02-25T05:35:56.189Z,1027.92
2019-02-25T05:36:56.529Z,1027.91
2019-02-25T05:37:56.862Z,1027.93
2019-02-25T05:38:58.762Z,1027.91
2019-02-25T05:39:57.514Z,1027.92
2019-02-25T05:40:57.915Z,1027.91
2019-02-25T05:41:59.454Z,1027.87
2019-02-25T05:42:59.696Z,1027.90
2019-02-25T05:44:00.639Z,1027.94
2019-02-25T05:45:00.479Z,1028.05
2019-02-25T05:46:01.071Z,1028.06
2019-02-25T05:47:01.164Z,1027.95
2019-02-25T05:48:01.581Z,1027.94
2019-02-25T05:49:01.693Z,1027.98
2019-02-25T05:50:02.269Z,1027.91
2019-02-25T05:51:01.811Z,1027.96
2019-02-25T05:52:02.701Z,1027.99
2019-02-25T05:53:02.951Z,1028.00
2019-02-25T05:54:03.110Z,1028.07
2019-02-25T05:55:03.470Z,1028.03
2019-02-25T05:56:03.690Z,1028.02
2019-02-25T05:57:04.112Z,1028.10
2019-02-25T05:58:04.311Z,1028.15
2019-02-25T05:59:04.826Z,1028.10
2019-02-25T06:00:04.733Z,1028.05
2019-02-25T06:01:05.248Z,1028.13
2019-02-25T06:02:05.682Z,1028.14
2019-02-25T06:03:06.054Z,1028.07
2019-02-25T06:04:05.992Z,1028.06
2019-02-25T06:05:06.920Z,1028.09
2019-02-25T06:06:07.139Z,1028.08
2019-02-25T06:07:07.446Z,1028.01
2019-02-25T06:08:07.750Z,1028.05
2019-02-25T06:09:08.177Z,1028.05
2019-02-25T06:10:08.275Z,1028.08
2019-02-25T06:11:08.488Z,1028.02
2019-02-25T06:12:09.045Z,1028.08
2019-02-25T06:13:09.012Z,1027.98
2019-02-25T06:14:09.123Z,1028.11
2019-02-25T06:15:09.437Z,1027.99
2019-02-25T06:16:10.201Z,1027.96
2019-02-25T06:17:09.769Z,1028.00
2019-02-25T06:18:09.983Z,1028.00
2019-02-25T06:19:10.180Z,1027.98
2019-02-25T06:20:10.594Z,1027.95
2019-02-25T06:21:10.935Z,1028.04
2019-02-25T06:22:11.231Z,1027.93
2019-02-25T06:23:11.540Z,1028.02
2019-02-25T06:24:11.960Z,1027.96
2019-02-25T06:25:12.374Z,1028.01
2019-02-25T06:26:12.579Z,1028.05
2019-02-25T06:28:12.807Z,1028.05
2019-02-25T06:29:13.317Z,1028.02
2019-02-25T06:30:13.835Z,1028.01
2019-02-25T06:31:13.643Z,1027.99
2019-02-25T06:32:14.053Z,1028.11
2019-02-25T06:33:14.477Z,1028.03
2019-02-25T06:34:14.909Z,1028.06
2019-02-25T06:35:15.253Z,1028.07
2019-02-25T06:36:15.625Z,1028.05
2019-02-25T06:37:16.040Z,1028.05
2019-02-25T06:38:16.044Z,1028.05
2019-02-25T06:39:16.153Z,1028.07
2019-02-25T06:40:16.563Z,1028.08
2019-02-25T06:41:16.365Z,1028.10
2019-02-25T06:42:16.883Z,1028.11
2019-02-25T06:43:17.298Z,1028.12
2019-02-25T06:44:17.313Z,1028.12
2019-02-25T06:45:18.138Z,1028.11
2019-02-25T06:46:18.343Z,1028.10
2019-02-25T06:47:18.765Z,1028.11
2019-02-25T06:48:19.183Z,1028.11
2019-02-25T06:49:19.596Z,1028.12
2019-02-25T06:50:20.112Z,1028.13
2019-02-25T06:51:20.020Z,1028.13
2019-02-25T06:52:20.532Z,1028.12
2019-02-25T06:53:20.549Z,1028.11
2019-02-25T06:54:20.345Z,1028.13
2019-02-25T06:55:20.657Z,1028.14
2019-02-25T06:56:20.863Z,1028.15
2019-02-25T06:57:21.382Z,1028.15
2019-02-25T06:58:23.105Z,1028.14
2019-02-25T06:59:21.397Z,1028.14
2019-02-25T07:00:21.916Z,1028.12
2019-02-25T07:01:21.827Z,1028.12
2019-02-25T07:02:22.241Z,1028.12
2019-02-25T07:03:22.762Z,1028.13
2019-02-25T07:04:22.658Z,1028.14
2019-02-25T07:05:23.075Z,1028.14
2019-02-25T07:06:23.086Z,1028.12
2019-02-25T07:07:23.191Z,1028.13
2019-02-25T07:08:23.310Z,1028.12
2019-02-25T07:09:23.517Z,1028.12
2019-02-25T07:10:23.626Z,1028.12
2019-02-25T07:11:23.357Z,1028.11
2019-02-25T07:12:24.041Z,1028.10
2019-02-25T07:13:24.058Z,1028.09
2019-02-25T07:14:24.566Z,1028.08
2019-02-25T07:15:24.783Z,1028.10
2019-02-25T07:16:24.721Z,1028.09
2019-02-25T07:17:25.105Z,1028.08
2019-02-25T07:18:25.320Z,1028.09
2019-02-25T07:19:25.727Z,1028.11
2019-02-25T07:20:25.937Z,1028.13
2019-02-25T07:21:25.953Z,1028.16
2019-02-25T07:22:26.258Z,1028.19
2019-02-25T07:23:26.165Z,1028.20
2019-02-25T07:24:26.373Z,1028.19
2019-02-25T07:25:26.894Z,1028.19
2019-02-25T07:26:27.642Z,1028.17
2019-02-25T07:27:27.312Z,1028.16
2019-02-25T07:28:27.275Z,1028.17
2019-02-25T07:29:27.432Z,1028.17
2019-02-25T07:30:27.647Z,1028.17
2019-02-25T07:31:27.549Z,1028.16
2019-02-25T07:32:27.473Z,1028.15
2019-02-25T07:34:28.206Z,1028.16
2019-02-25T07:35:28.093Z,1028.16
2019-02-25T07:36:28.308Z,1028.17
2019-02-25T07:37:28.819Z,1028.16
2019-02-25T07:38:28.927Z,1028.15
2019-02-25T07:39:29.336Z,1028.13
2019-02-25T07:40:29.861Z,1028.13
2019-02-25T07:41:30.077Z,1028.12
2019-02-25T07:42:30.181Z,1028.12
2019-02-25T07:43:30.085Z,1028.10
2019-02-25T07:44:30.206Z,1028.11
2019-02-25T07:45:30.918Z,1028.11
2019-02-25T07:46:30.829Z,1028.11
2019-02-25T07:47:30.725Z,1028.11
2019-02-25T07:48:30.963Z,1028.12
2019-02-25T07:49:31.615Z,1028.13
2019-02-25T07:50:31.456Z,1028.14
2019-02-25T07:51:32.202Z,1028.14
2019-02-25T07:52:32.009Z,1028.15
2019-02-25T07:53:32.402Z,1028.16
2019-02-25T07:54:32.615Z,1028.17
2019-02-25T07:55:32.828Z,1028.21
2019-02-25T07:56:33.090Z,1028.22
2019-02-25T07:57:33.503Z,1028.24
2019-02-25T07:58:34.275Z,1028.25
2019-02-25T07:59:34.387Z,1028.26
2019-02-25T08:00:34.388Z,1028.30
2019-02-25T08:01:34.502Z,1028.30
2019-02-25T08:02:34.926Z,1028.34
2019-02-25T08:03:35.235Z,1028.34
2019-02-25T08:04:35.393Z,1028.34
2019-02-25T08:05:35.860Z,1028.35
2019-02-25T08:06:36.380Z,1028.37
2019-02-25T08:07:36.935Z,1028.36
2019-02-25T08:08:37.001Z,1028.36
2019-02-25T08:09:37.538Z,1028.36
2019-02-25T08:10:37.533Z,1028.38
2019-02-25T08:12:37.654Z,1028.38
2019-02-25T08:13:37.860Z,1028.38
2019-02-25T08:14:38.273Z,1028.37
2019-02-25T08:15:38.486Z,1028.38
2019-02-25T08:16:38.699Z,1028.38
2019-02-25T08:17:38.813Z,1028.39
2019-02-25T08:18:39.119Z,1028.42
2019-02-25T08:19:38.976Z,1028.44
2019-02-25T08:20:39.753Z,1028.45
2019-02-25T08:21:39.549Z,1028.47
2019-02-25T08:22:39.871Z,1028.48
2019-02-25T08:23:39.867Z,1028.48
2019-02-25T08:24:40.080Z,1028.48
2019-02-25T08:25:39.833Z,1028.47
2019-02-25T08:26:40.403Z,1028.47
2019-02-25T08:27:40.719Z,1028.47
2019-02-25T08:28:40.617Z,1028.47
2019-02-25T08:29:41.135Z,1028.46
2019-02-25T08:30:41.561Z,1028.45
2019-02-25T08:31:41.866Z,1028.45
2019-02-25T08:32:42.322Z,1028.46
2019-02-25T08:33:42.217Z,1028.43
2019-02-25T08:34:42.604Z,1028.42
2019-02-25T08:35:42.304Z,1028.43
2019-02-25T08:36:42.513Z,1028.41
2019-02-25T08:37:42.404Z,1028.40
2019-02-25T08:38:43.479Z,1028.39
2019-02-25T08:39:43.516Z,1028.37
2019-02-25T08:40:43.665Z,1028.40
2019-02-25T08:41:43.671Z,1028.39
2019-02-25T08:42:43.985Z,1028.39
2019-02-25T08:43:43.898Z,1028.40
2019-02-25T08:44:44.304Z,1028.41
2019-02-25T08:45:44.824Z,1028.44
2019-02-25T08:46:45.243Z,1028.53
2019-02-25T08:47:45.553Z,1028.53
2019-02-25T08:48:45.477Z,1028.44
2019-02-25T08:49:45.976Z,1028.45
2019-02-25T08:50:46.291Z,1028.53
2019-02-25T08:51:46.517Z,1028.52
2019-02-25T08:52:46.712Z,1028.50
2019-02-25T08:53:47.035Z,1028.51
2019-02-25T08:54:47.443Z,1028.56
2019-02-25T08:55:47.961Z,1028.58
2019-02-25T08:56:47.560Z,1028.51
2019-02-25T08:57:47.974Z,1028.52
2019-02-25T08:58:47.799Z,1028.49
2019-02-25T08:59:48.610Z,1028.50
2019-02-25T09:00:48.814Z,1028.49
2019-02-25T09:01:48.924Z,1028.50
2019-02-25T09:02:48.928Z,1028.48
2019-02-25T09:03:49.967Z,1028.40
2019-02-25T09:04:50.070Z,1028.39
2019-02-25T09:05:49.767Z,1028.39
2019-02-25T09:06:50.285Z,1028.38
2019-02-25T09:07:50.189Z,1028.38
2019-02-25T09:08:50.418Z,1028.35
2019-02-25T09:09:50.919Z,1028.34
2019-02-25T09:10:50.727Z,1028.34
2019-02-25T09:11:51.240Z,1028.34
2019-02-25T09:12:51.029Z,1028.34
2019-02-25T09:13:51.354Z,1028.29
2019-02-25T09:14:51.879Z,1028.29
2019-02-25T09:15:51.983Z,1028.28
2019-02-25T09:16:51.886Z,1028.26
2019-02-25T09:17:52.203Z,1028.29
2019-02-25T09:18:52.308Z,1028.23
2019-02-25T09:19:52.575Z,1028.24
2019-02-25T09:20:53.038Z,1028.18
2019-02-25T09:21:53.353Z,1028.22
2019-02-25T09:22:53.878Z,1028.23
2019-02-25T09:23:53.782Z,1028.20
2019-02-25T09:24:54.164Z,1028.29
2019-02-25T09:25:54.506Z,1028.27
2019-02-25T09:26:54.819Z,1028.23
2019-02-25T09:27:55.234Z,1028.27
2019-02-25T09:28:57.310Z,1028.23
2019-02-25T09:29:55.974Z,1028.31
2019-02-25T09:30:56.381Z,1028.25
2019-02-25T09:31:56.911Z,1028.30
2019-02-25T09:32:56.905Z,1028.29
2019-02-25T09:33:57.424Z,1028.30
2019-02-25T09:34:57.083Z,1028.31
2019-02-25T09:35:57.646Z,1028.39
2019-02-25T09:36:57.652Z,1028.30
2019-02-25T09:37:57.967Z,1028.34
2019-02-25T09:38:58.378Z,1028.27
2019-02-25T09:39:58.796Z,1028.34
2019-02-25T09:40:59.120Z,1028.31
2019-02-25T09:41:59.630Z,1028.35
2019-02-25T09:42:59.635Z,1028.34
2019-02-25T09:44:00.054Z,1028.34
2019-02-25T09:45:00.466Z,1028.31
2019-02-25T09:46:00.890Z,1028.30
2019-02-25T09:47:01.401Z,1028.32
2019-02-25T09:48:01.612Z,1028.28
2019-02-25T09:49:01.937Z,1028.28
2019-02-25T09:50:02.035Z,1028.31
2019-02-25T09:51:02.765Z,1028.20
2019-02-25T09:52:03.277Z,1028.18
2019-02-25T09:53:03.080Z,1028.19
2019-02-25T09:54:03.236Z,1028.18
2019-02-25T09:55:03.808Z,1028.16
2019-02-25T09:56:03.968Z,1028.10
2019-02-25T09:57:04.538Z,1028.10
2019-02-25T09:58:04.234Z,1028.11
2019-02-25T09:59:04.654Z,1028.09
2019-02-25T10:00:05.172Z,1028.17
2019-02-25T10:01:05.600Z,1028.08
2019-02-25T10:02:05.602Z,1028.14
2019-02-25T10:03:06.219Z,1028.06
2019-02-25T10:04:06.326Z,1028.05
2019-02-25T10:05:06.438Z,1028.06
2019-02-25T10:06:06.452Z,1028.03
2019-02-25T10:07:06.343Z,1028.03
2019-02-25T10:08:06.861Z,1028.08
2019-02-25T10:09:06.901Z,1028.05
2019-02-25T10:10:06.874Z,1028.05
2019-02-25T10:11:07.102Z,1028.03
2019-02-25T10:12:07.092Z,1027.97
2019-02-25T10:13:07.360Z,1027.95
2019-02-25T10:14:07.619Z,1027.87
2019-02-25T10:15:08.167Z,1027.95
2019-02-25T10:16:08.052Z,1027.94
2019-02-25T10:17:08.148Z,1027.97
2019-02-25T10:18:08.673Z,1028.04
2019-02-25T10:19:08.354Z,1027.96
2019-02-25T10:20:08.582Z,1027.93
2019-02-25T10:21:09.004Z,1028.01
2019-02-25T10:22:09.519Z,1027.91
2019-02-25T10:23:09.274Z,1027.93
2019-02-25T10:24:09.583Z,1027.90
2019-02-25T10:25:10.049Z,1027.90
2019-02-25T10:26:10.463Z,1027.96
2019-02-25T10:27:10.989Z,1027.88
2019-02-25T10:28:10.985Z,1027.83
2019-02-25T10:29:11.400Z,1027.89
2019-02-25T10:30:11.715Z,1027.88
2019-02-25T10:31:13.181Z,1027.86
2019-02-25T10:32:12.149Z,1027.78
2019-02-25T10:33:12.655Z,1027.81
2019-02-25T10:34:12.971Z,1027.86
2019-02-25T10:35:13.190Z,1027.86
2019-02-25T10:36:13.701Z,1027.83
2019-02-25T10:37:15.587Z,1027.85
2019-02-25T10:38:14.227Z,1027.85
2019-02-25T10:39:15.529Z,1027.83
2019-02-25T10:40:15.995Z,1027.85
2019-02-25T10:41:17.124Z,1027.84
2019-02-25T10:42:15.696Z,1027.86
2019-02-25T10:43:16.205Z,1027.94
2019-02-25T10:44:15.964Z,1027.81
2019-02-25T10:45:16.424Z,1027.83
2019-02-25T10:46:17.687Z,1027.96
2019-02-25T10:47:19.010Z,1027.96
2019-02-25T10:48:17.703Z,1027.99
2019-02-25T10:49:17.066Z,1028.01
2019-02-25T10:50:17.041Z,1027.93
2019-02-25T10:51:17.176Z,1027.92
2019-02-25T10:52:17.375Z,1027.93
2019-02-25T10:53:18.216Z,1027.94
2019-02-25T10:54:19.121Z,1027.94
2019-02-25T10:55:18.226Z,1027.94
2019-02-25T10:56:19.910Z,1027.95
2019-02-25T10:57:19.342Z,1027.94
2019-02-25T10:58:18.760Z,1027.95
2019-02-25T10:59:19.275Z,1027.91
2019-02-25T11:00:19.185Z,1027.98
2019-02-25T11:01:22.037Z,1027.98
2019-02-25T11:02:19.618Z,1027.94
2019-02-25T11:03:21.708Z,1027.91
2019-02-25T11:04:21.793Z,1027.89
2019-02-25T11:05:21.215Z,1027.96
2019-02-25T11:06:20.863Z,1027.94
2019-02-25T11:07:21.391Z,1027.92
2019-02-25T11:08:21.489Z,1027.93
2019-02-25T11:09:21.490Z,1027.94
2019-02-25T11:10:22.383Z,1027.94
2019-02-25T11:11:23.198Z,1027.93
2019-02-25T11:12:23.799Z,1027.91
2019-02-25T11:13:21.517Z,1027.90
2019-02-25T11:14:22.444Z,1027.94
2019-02-25T11:15:22.935Z,1027.90
2019-02-25T11:16:22.730Z,1027.88
2019-02-25T11:17:24.426Z,1027.81
2019-02-25T11:18:26.663Z,1027.90
2019-02-25T11:19:25.021Z,1027.88
2019-02-25T11:20:25.151Z,1027.92
2019-02-25T11:21:24.952Z,1027.90
2019-02-25T11:22:25.369Z,1027.89
2019-02-25T11:23:25.584Z,1027.88
2019-02-25T11:24:26.121Z,1027.82
2019-02-25T11:25:28.476Z,1027.89
2019-02-25T11:26:28.876Z,1027.85
2019-02-25T11:27:28.631Z,1027.85
2019-02-25T11:28:27.772Z,1027.81
2019-02-25T11:29:27.773Z,1027.75
2019-02-25T11:30:27.472Z,1027.79
2019-02-25T11:31:29.168Z,1027.74
2019-02-25T11:32:28.020Z,1027.77
2019-02-25T11:33:30.259Z,1027.78
2019-02-25T11:34:29.546Z,1027.77
2019-02-25T11:35:29.173Z,1027.77
2019-02-25T11:36:29.660Z,1027.82
2019-02-25T11:37:29.977Z,1027.86
2019-02-25T11:38:31.261Z,1027.71
2019-02-25T11:39:32.515Z,1027.79
2019-02-25T11:40:31.837Z,1027.77
2019-02-25T11:41:31.836Z,1027.63
2019-02-25T11:42:30.901Z,1027.68
2019-02-25T11:43:30.936Z,1027.72
2019-02-25T11:44:31.356Z,1027.68
2019-02-25T11:45:31.912Z,1027.73
2019-02-25T11:46:32.081Z,1027.72
2019-02-25T11:47:32.598Z,1027.66
2019-02-25T11:48:32.103Z,1027.75
2019-02-25T11:49:32.405Z,1027.67
2019-02-25T11:50:32.698Z,1027.65
2019-02-25T11:51:33.136Z,1027.63
2019-02-25T11:52:33.347Z,1027.60
2019-02-25T11:53:33.464Z,1027.55
2019-02-25T11:54:33.378Z,1027.58
2019-02-25T11:55:34.083Z,1027.49
2019-02-25T11:56:34.602Z,1027.53
2019-02-25T11:57:34.511Z,1027.50
2019-02-25T11:58:35.035Z,1027.42
2019-02-25T11:59:34.931Z,1027.43
2019-02-25T12:00:35.445Z,1027.50
2019-02-25T12:01:35.350Z,1027.48
2019-02-25T12:02:35.676Z,1027.45
2019-02-25T12:03:36.180Z,1027.42
2019-02-25T12:04:36.202Z,1027.44
2019-02-25T12:05:35.985Z,1027.41
2019-02-25T12:06:36.265Z,1027.43
2019-02-25T12:07:36.494Z,1027.41
2019-02-25T12:08:36.837Z,1027.39
2019-02-25T12:09:37.354Z,1027.40
2019-02-25T12:11:37.156Z,1027.38
2019-02-25T12:12:37.672Z,1027.47
2019-02-25T12:13:37.578Z,1027.44
2019-02-25T12:14:38.020Z,1027.45
2019-02-25T12:15:38.408Z,1027.38
2019-02-25T12:16:38.723Z,1027.37
2019-02-25T12:17:39.037Z,1027.39